Time;durP1;ratioP1;P1;durP2;ratioP2;P2;SDS_P1;SDS_P2;PMS_P1;PMS_P2;Temp;Humidity;BMP_temperature;BMP_pressure;BME280_temperature;BME280_humidity;BME280_pressure;Samples;Min_cycle;Max_cycle;Signal;HPM_P1;HPM_P2
2021/04/27 00:02:22;;;;;;;1.63;0.10;;;5.70;95.50;;;;;;5094830;28;20020;-77
2021/04/27 00:04:51;;;;;;;1.13;0.40;;;5.60;96.00;;;;;;5095022;28;20081;-76
2021/04/27 00:07:16;;;;;;;0.77;0.32;;;5.60;96.50;;;;;;5076825;28;20087;-77
2021/04/27 00:09:42;;;;;;;1.45;0.15;;;5.50;97.90;;;;;;5094756;28;20052;-79
2021/04/27 00:12:09;;;;;;;1.67;0.20;;;5.50;97.30;;;;;;5076940;28;20020;-80
2021/04/27 00:14:35;;;;;;;2.38;0.30;;;5.50;96.90;;;;;;5094982;28;20016;-80
2021/04/27 00:17:00;;;;;;;3.60;0.38;;;5.40;97.30;;;;;;5076436;28;20020;-80
2021/04/27 00:19:26;;;;;;;0.55;0.20;;;5.40;98.40;;;;;;5076629;28;20028;-80
2021/04/27 00:21:52;;;;;;;2.60;0.55;;;5.40;98.20;;;;;;5095172;28;20461;-80
2021/04/27 00:24:17;;;;;;;1.10;0.50;;;5.30;98.00;;;;;;5094719;28;20396;-80
2021/04/27 00:26:44;;;;;;;1.85;0.40;;;5.30;98.80;;;;;;5076629;28;20036;-76
2021/04/27 00:29:09;;;;;;;1.75;0.65;;;5.30;98.60;;;;;;5076236;28;20030;-77
2021/04/27 00:31:36;;;;;;;0.93;0.10;;;5.10;99.40;;;;;;5094664;28;20024;-77
2021/04/27 00:34:01;;;;;;;3.63;0.45;;;5.00;99.80;;;;;;5076551;28;20020;-80
2021/04/27 00:36:27;;;;;;;0.65;0.20;;;5.00;99.90;;;;;;5076017;28;20027;-77
2021/04/27 00:38:53;;;;;;;2.35;0.45;;;5.10;99.90;;;;;;5094848;28;20028;-78
2021/04/27 00:41:19;;;;;;;3.63;0.65;;;5.00;99.90;;;;;;5095577;28;20024;-77
2021/04/27 00:43:45;;;;;;;2.15;0.10;;;5.00;99.90;;;;;;5094638;28;20111;-77
2021/04/27 00:46:11;;;;;;;2.38;0.45;;;4.90;99.90;;;;;;5076649;28;20028;-77
2021/04/27 00:48:36;;;;;;;0.90;0.55;;;4.90;99.90;;;;;;5076068;28;20404;-77
2021/04/27 00:51:02;;;;;;;2.08;0.38;;;4.80;99.90;;;;;;5076287;28;20051;-77
2021/04/27 00:53:28;;;;;;;5.00;0.47;;;4.80;99.90;;;;;;5076302;28;20056;-76
2021/04/27 00:55:57;;;;;;;3.05;0.50;;;4.80;99.90;;;;;;5095582;28;20051;-77
2021/04/27 00:58:26;;;;;;;2.35;0.73;;;4.80;99.90;;;;;;5095388;28;20097;-80
2021/04/27 01:00:52;;;;;;;5.28;0.57;;;4.70;99.90;;;;;;5094281;28;20028;-76
2021/04/27 01:03:18;;;;;;;2.80;0.55;;;4.70;99.90;;;;;;5095880;28;20024;-79
2021/04/27 01:05:44;;;;;;;1.45;0.20;;;4.70;99.90;;;;;;5111264;22;20032;-77
2021/04/27 01:08:16;;;;;;;3.75;0.22;;;4.70;99.90;;;;;;5111233;22;20075;-77
2021/04/27 01:10:52;;;;;;;3.25;0.20;;;4.70;99.90;;;;;;5097853;28;20036;-77
2021/04/27 01:13:27;;;;;;;5.75;0.38;;;4.60;99.90;;;;;;5079381;28;20040;-77
2021/04/27 01:15:54;;;;;;;2.15;0.68;;;4.60;99.90;;;;;;5079566;28;20046;-76
2021/04/27 01:18:21;;;;;;;2.15;0.38;;;4.60;99.90;;;;;;5079824;28;20026;-77
2021/04/27 01:20:49;;;;;;;4.65;1.00;;;4.60;99.90;;;;;;5098417;28;20020;-77
2021/04/27 01:23:35;;;;;;;5.03;0.17;;;4.60;99.90;;;;;;5079796;28;20522;-76
2021/04/27 01:26:05;;;;;;;0.90;0.30;;;4.60;99.90;;;;;;5079339;28;20450;-77
2021/04/27 01:28:33;;;;;;;1.83;0.10;;;4.60;99.90;;;;;;5079752;28;20514;-77
2021/04/27 01:30:59;;;;;;;2.70;0.20;;;4.50;99.90;;;;;;5079704;28;20115;-77
2021/04/27 01:33:28;;;;;;;2.90;0.32;;;4.50;99.90;;;;;;5097876;28;20020;-77
2021/04/27 01:36:02;;;;;;;2.25;0.30;;;4.50;99.90;;;;;;5079512;28;20020;-77
2021/04/27 01:38:28;;;;;;;4.55;0.50;;;4.40;99.90;;;;;;5080049;28;20078;-77
2021/04/27 01:40:55;;;;;;;2.00;0.20;;;4.50;99.90;;;;;;5098046;28;20057;-77
2021/04/27 01:43:22;;;;;;;3.70;0.45;;;4.40;99.90;;;;;;5098701;28;20097;-77
2021/04/27 01:45:52;;;;;;;3.40;0.40;;;4.50;99.90;;;;;;5079911;28;20024;-80
2021/04/27 01:48:18;;;;;;;6.05;0.30;;;5.40;99.90;;;;;;5079983;28;20392;-78
2021/04/27 01:50:44;;;;;;;3.40;0.73;;;4.50;99.90;;;;;;5097681;28;20434;-80
2021/04/27 01:53:15;;;;;;;3.53;0.20;;;4.50;99.90;;;;;;5078843;28;20012;-76
2021/04/27 01:55:42;;;;;;;0.57;0.20;;;4.40;99.90;;;;;;5079436;28;20476;-77
2021/04/27 01:58:08;;;;;;;2.45;0.35;;;4.40;99.90;;;;;;5144016;22;20097;-78
2021/04/27 02:00:33;;;;;;;3.40;0.85;;;4.40;99.90;;;;;;5079725;28;20434;-77
2021/04/27 02:02:59;;;;;;;8.02;0.52;;;4.50;99.90;;;;;;5110101;22;20067;-77
2021/04/27 02:05:25;;;;;;;3.38;0.65;;;4.30;99.90;;;;;;5079469;28;20028;-77
2021/04/27 02:07:50;;;;;;;5.05;0.70;;;4.30;99.90;;;;;;5079310;28;20058;-77
2021/04/27 02:10:16;;;;;;;1.58;0.40;;;4.30;99.90;;;;;;5096552;28;20021;-77
2021/04/27 02:12:51;;;;;;;2.53;0.30;;;4.20;99.90;;;;;;5110188;22;20072;-80
2021/04/27 02:15:20;;;;;;;4.13;1.35;;;4.10;99.90;;;;;;5090828;22;20553;-78
2021/04/27 02:17:55;;;;;;;2.00;0.10;;;4.20;99.90;;;;;;5078678;28;20020;-80
2021/04/27 02:20:25;;;;;;;1.00;0.30;;;4.10;99.90;;;;;;5097085;28;20024;-78
2021/04/27 02:22:52;;;;;;;1.40;0.10;;;4.10;99.90;;;;;;5096780;28;20040;-77
2021/04/27 02:25:19;;;;;;;5.95;0.20;;;4.20;99.90;;;;;;5078515;28;20062;-78
2021/04/27 02:27:48;;;;;;;3.75;0.82;;;4.20;99.90;;;;;;5078822;28;20031;-78
2021/04/27 02:30:17;;;;;;;1.13;0.35;;;4.10;99.90;;;;;;5099585;22;20545;-77
2021/04/27 02:32:43;;;;;;;0.85;0.08;;;4.10;99.90;;;;;;5076088;28;20025;-78
2021/04/27 02:35:11;;;;;;;7.20;0.25;;;4.10;99.90;;;;;;5094605;22;20043;-78
2021/04/27 02:37:39;;;;;;;9.30;0.30;;;4.10;99.90;;;;;;5096726;28;20034;-78
2021/04/27 02:40:05;;;;;;;3.20;0.28;;;4.00;99.90;;;;;;5078364;28;20021;-78
2021/04/27 02:42:36;;;;;;;5.32;0.47;;;3.90;99.90;;;;;;5096183;28;20034;-77
2021/04/27 02:45:04;;;;;;;5.03;0.30;;;3.90;99.90;;;;;;5114255;22;20130;-77
2021/04/27 02:47:30;;;;;;;1.55;0.35;;;4.00;99.90;;;;;;5096145;28;20537;-76
2021/04/27 02:49:55;;;;;;;1.85;0.52;;;3.90;99.90;;;;;;5077810;28;20024;-77
2021/04/27 02:52:21;;;;;;;0.88;0.22;;;3.90;99.90;;;;;;5078108;28;20023;-78
2021/04/27 02:54:46;;;;;;;4.55;0.45;;;4.00;99.90;;;;;;5077459;28;20012;-77
2021/04/27 02:57:12;;;;;;;0.90;0.20;;;4.00;99.90;;;;;;5077753;28;20068;-80
2021/04/27 02:59:37;;;;;;;0.77;0.10;;;3.90;99.90;;;;;;5077757;28;20073;-76
2021/04/27 03:02:03;;;;;;;2.33;0.30;;;3.90;99.90;;;;;;5109280;22;20444;-78
2021/04/27 03:04:29;;;;;;;5.35;0.43;;;3.90;99.90;;;;;;5095862;28;20028;-78
2021/04/27 03:06:54;;;;;;;4.22;0.30;;;3.90;99.90;;;;;;5095534;28;20027;-78
2021/04/27 03:09:20;;;;;;;3.83;0.50;;;3.90;99.90;;;;;;5095739;28;20103;-78
2021/04/27 03:11:46;;;;;;;2.63;0.13;;;3.80;99.90;;;;;;5077757;28;20008;-78
2021/04/27 03:14:11;;;;;;;2.67;0.38;;;3.80;99.90;;;;;;5095507;28;20469;-78
2021/04/27 03:16:37;;;;;;;2.58;0.30;;;3.80;99.90;;;;;;5095986;28;20027;-77
2021/04/27 03:19:05;;;;;;;2.10;0.25;;;3.80;99.90;;;;;;5095864;28;20028;-80
2021/04/27 03:21:31;;;;;;;1.83;0.30;;;3.70;99.90;;;;;;5095984;28;20085;-81
2021/04/27 03:23:56;;;;;;;4.40;0.20;;;3.70;99.90;;;;;;5077304;28;20024;-78
2021/04/27 03:26:23;;;;;;;3.70;0.32;;;3.60;99.90;;;;;;5076794;28;20384;-80
2021/04/27 03:28:49;;;;;;;1.27;0.20;;;3.60;99.90;;;;;;5096079;28;20028;-78
2021/04/27 03:31:15;;;;;;;6.95;0.50;;;3.60;99.90;;;;;;5077255;28;20035;-78
2021/04/27 03:33:41;;;;;;;2.25;0.20;;;3.60;99.90;;;;;;5095198;28;20472;-77
2021/04/27 03:36:06;;;;;;;1.63;0.35;;;3.50;99.90;;;;;;5077370;28;20013;-80
2021/04/27 03:38:32;;;;;;;1.13;0.50;;;3.50;99.90;;;;;;5095163;28;20031;-77
2021/04/27 03:40:58;;;;;;;3.08;0.80;;;3.40;99.90;;;;;;5095509;28;20035;-79
2021/04/27 03:43:23;;;;;;;2.67;0.38;;;3.40;99.90;;;;;;5131762;22;20074;-78
2021/04/27 03:45:49;;;;;;;1.35;0.35;;;3.40;99.90;;;;;;5094449;28;20484;-79
2021/04/27 03:48:18;;;;;;;2.85;0.40;;;3.30;99.90;;;;;;5095150;28;20145;-77
2021/04/27 03:50:44;;;;;;;3.58;0.65;;;3.30;99.90;;;;;;5076846;28;20060;-79
2021/04/27 03:53:10;;;;;;;3.58;0.88;;;3.20;99.90;;;;;;5077149;28;20027;-79
2021/04/27 03:55:37;;;;;;;2.80;1.27;;;3.20;99.90;;;;;;5094840;28;20012;-80
2021/04/27 03:58:03;;;;;;;1.02;0.52;;;3.20;99.90;;;;;;5095001;28;20040;-78
2021/04/27 04:00:29;;;;;;;3.13;0.82;;;4.20;99.90;;;;;;5076511;28;20020;-76
2021/04/27 04:02:55;;;;;;;3.17;1.02;;;3.20;99.90;;;;;;5077045;28;20114;-78
2021/04/27 04:05:21;;;;;;;2.78;0.40;;;3.10;99.90;;;;;;5094774;28;20063;-76
2021/04/27 04:07:46;;;;;;;2.85;0.75;;;3.10;99.90;;;;;;5076990;28;20031;-78
2021/04/27 04:10:13;;;;;;;2.22;0.75;;;3.10;99.90;;;;;;5076550;28;20069;-77
2021/04/27 04:12:39;;;;;;;3.67;1.15;;;3.10;99.90;;;;;;5076208;28;20023;-77
2021/04/27 04:15:08;;;;;;;1.48;0.60;;;3.20;99.90;;;;;;5076744;28;20030;-77
2021/04/27 04:17:34;;;;;;;3.30;0.85;;;3.20;99.90;;;;;;5077177;28;20024;-81
2021/04/27 04:20:01;;;;;;;3.00;0.93;;;3.20;99.90;;;;;;5077121;28;20059;-80
2021/04/27 04:22:26;;;;;;;5.40;0.68;;;3.20;99.90;;;;;;5094660;28;20028;-80
2021/04/27 04:24:52;;;;;;;3.92;0.70;;;3.10;99.90;;;;;;5076948;28;20058;-80
2021/04/27 04:27:17;;;;;;;2.45;0.45;;;3.20;99.90;;;;;;5077235;28;20028;-80
2021/04/27 04:29:44;;;;;;;4.38;0.38;;;3.20;99.90;;;;;;5096058;28;20367;-80
2021/04/27 04:32:13;;;;;;;2.97;0.50;;;3.20;99.90;;;;;;5076730;28;20020;-80
2021/04/27 04:34:39;;;;;;;4.88;0.57;;;3.20;99.90;;;;;;5094330;28;20027;-76
2021/04/27 04:37:04;;;;;;;6.15;1.10;;;3.20;99.90;;;;;;5076067;28;20081;-77
2021/04/27 04:39:30;;;;;;;3.80;0.47;;;3.10;99.90;;;;;;5097996;28;20032;-76
2021/04/27 04:41:56;;;;;;;3.90;1.80;;;3.20;99.90;;;;;;5098645;28;20025;-76
2021/04/27 04:44:21;;;;;;;4.18;0.68;;;3.20;99.90;;;;;;5098566;28;20502;-76
2021/04/27 04:46:47;;;;;;;1.17;0.55;;;3.20;99.90;;;;;;5111107;22;20051;-76
2021/04/27 04:49:13;;;;;;;1.55;0.85;;;3.20;99.90;;;;;;5080547;28;20047;-76
2021/04/27 04:51:39;;;;;;;3.63;0.88;;;3.20;99.90;;;;;;5080260;28;20428;-76
2021/04/27 04:54:05;;;;;;;3.03;0.70;;;3.30;99.90;;;;;;5080043;28;20039;-76
2021/04/27 04:56:30;;;;;;;1.52;0.40;;;3.30;99.90;;;;;;5079880;28;20024;-80
2021/04/27 04:58:56;;;;;;;2.65;0.60;;;3.30;99.90;;;;;;5098074;28;20388;-76
2021/04/27 05:01:21;;;;;;;2.05;0.80;;;3.40;99.90;;;;;;5098065;28;20023;-77
2021/04/27 05:03:47;;;;;;;2.25;0.80;;;3.50;99.90;;;;;;5111193;22;20069;-76
2021/04/27 05:06:16;;;;;;;1.80;0.95;;;3.50;99.90;;;;;;5098177;28;20028;-76
2021/04/27 05:08:44;;;;;;;4.97;0.60;;;3.60;99.90;;;;;;5092677;22;20092;-75
2021/04/27 05:11:11;;;;;;;6.00;1.17;;;3.70;99.90;;;;;;5110813;22;20032;-80
2021/04/27 05:13:37;;;;;;;3.35;0.70;;;3.60;99.90;;;;;;5098054;28;20020;-76
2021/04/27 05:16:03;;;;;;;5.65;0.98;;;3.70;99.90;;;;;;5098381;28;20103;-79
2021/04/27 05:18:29;;;;;;;2.28;0.88;;;3.80;99.90;;;;;;5079796;28;20054;-76
2021/04/27 05:20:55;;;;;;;1.70;0.68;;;3.90;99.90;;;;;;5079639;28;20498;-77
2021/04/27 05:23:22;;;;;;;2.45;0.65;;;3.90;99.90;;;;;;5079070;28;20024;-76
2021/04/27 05:25:48;;;;;;;4.47;1.10;;;4.00;99.90;;;;;;5097896;28;20020;-77
2021/04/27 05:28:14;;;;;;;4.55;0.57;;;4.10;99.90;;;;;;5079305;28;20498;-77
2021/04/27 05:30:40;;;;;;;2.58;0.68;;;4.10;99.90;;;;;;5078993;28;20042;-76
2021/04/27 05:33:06;;;;;;;3.22;0.70;;;4.20;99.90;;;;;;5077603;22;20135;-77
2021/04/27 05:35:31;;;;;;;2.88;0.68;;;4.30;99.90;;;;;;5077356;28;20020;-78
2021/04/27 05:37:57;;;;;;;4.82;0.98;;;4.40;99.90;;;;;;5077616;22;20040;-78
2021/04/27 05:40:23;;;;;;;3.40;0.73;;;3.60;99.90;;;;;;5078851;28;20476;-77
2021/04/27 05:42:48;;;;;;;4.75;0.82;;;5.70;99.90;;;;;;5079522;28;20273;-77
2021/04/27 05:45:14;;;;;;;5.38;1.02;;;4.60;99.90;;;;;;5078787;28;20362;-76
2021/04/27 05:50:08;;;;;;;2.03;0.77;;;4.90;99.90;;;;;;5075056;28;20044;-79
2021/04/27 05:52:34;;;;;;;2.53;0.80;;;5.00;99.90;;;;;;5076713;28;20021;-76
2021/04/27 05:55:00;;;;;;;3.42;1.10;;;5.20;99.90;;;;;;5076688;28;20020;-76
2021/04/27 05:57:26;;;;;;;2.15;1.00;;;5.40;99.90;;;;;;5076382;28;20028;-79
2021/04/27 05:59:51;;;;;;;10.85;2.38;;;5.50;99.90;;;;;;5074933;28;20024;-76
2021/04/27 06:02:17;;;;;;;4.53;1.52;;;5.60;99.40;;;;;;5076394;28;20055;-77
2021/04/27 06:04:43;;;;;;;4.15;0.82;;;5.70;99.90;;;;;;5076389;28;20457;-78
2021/04/27 06:07:09;;;;;;;7.40;1.45;;;5.80;99.40;;;;;;5089982;22;20023;-76
2021/04/27 06:09:36;;;;;;;9.48;1.17;;;5.80;99.30;;;;;;5077529;28;20036;-78
2021/04/27 06:12:01;;;;;;;3.63;0.68;;;6.00;98.30;;;;;;5096184;28;20070;-78
2021/04/27 06:14:27;;;;;;;2.17;0.82;;;6.10;97.60;;;;;;5078040;28;20415;-79
2021/04/27 06:16:53;;;;;;;1.83;0.77;;;6.30;96.70;;;;;;5078238;28;20017;-79
2021/04/27 06:19:18;;;;;;;3.60;1.05;;;6.50;96.30;;;;;;5078644;28;20161;-78
2021/04/27 06:21:44;;;;;;;4.93;1.23;;;6.70;95.30;;;;;;5096187;28;20480;-78
2021/04/27 06:24:10;;;;;;;2.15;0.82;;;6.90;93.90;;;;;;5077896;28;20113;-79
2021/04/27 06:26:36;;;;;;;1.95;1.00;;;7.00;93.20;;;;;;5096380;28;20031;-79
2021/04/27 06:29:02;;;;;;;6.95;1.83;;;7.10;93.20;;;;;;5096192;28;20030;-78
2021/04/27 06:31:27;;;;;;;5.15;0.63;;;7.30;92.00;;;;;;5078179;28;20482;-78
2021/04/27 06:33:53;;;;;;;1.55;1.02;;;7.40;90.50;;;;;;5096808;28;20357;-78
2021/04/27 06:36:22;;;;;;;5.05;1.75;;;7.60;90.20;;;;;;5078669;28;20108;-78
2021/04/27 06:38:47;;;;;;;2.10;1.00;;;7.60;88.80;;;;;;5097169;28;20394;-76
2021/04/27 06:41:13;;;;;;;4.60;0.70;;;7.70;87.80;;;;;;5096118;28;20070;-77
2021/04/27 06:43:39;;;;;;;5.80;1.35;;;7.80;88.40;;;;;;5096803;28;20016;-76
2021/04/27 06:46:05;;;;;;;3.90;1.45;;;7.90;86.80;;;;;;5096513;28;20055;-79
2021/04/27 06:48:34;;;;;;;4.72;0.82;;;8.00;85.50;;;;;;5095928;28;20024;-81
2021/04/27 06:51:00;;;;;;;3.95;0.82;;;8.00;83.00;;;;;;5077878;28;20020;-78
2021/04/27 06:53:26;;;;;;;9.93;1.92;;;8.10;83.00;;;;;;5077850;28;20020;-79
2021/04/27 06:55:51;;;;;;;3.10;0.80;;;8.10;82.00;;;;;;5077919;28;20043;-77
2021/04/27 06:58:17;;;;;;;3.92;0.82;;;8.20;81.80;;;;;;5077679;28;20020;-76
2021/04/27 07:00:43;;;;;;;6.25;1.35;;;8.30;80.70;;;;;;5095172;28;20103;-76
2021/04/27 07:03:09;;;;;;;2.13;1.00;;;8.30;78.90;;;;;;5090332;22;20036;-77
2021/04/27 07:05:35;;;;;;;2.60;1.23;;;8.40;78.70;;;;;;5077575;28;20016;-76
2021/04/27 07:08:01;;;;;;;8.13;1.63;;;8.50;78.70;;;;;;5095348;28;20044;-76
2021/04/27 07:10:27;;;;;;;3.22;1.00;;;8.60;76.90;;;;;;5077163;28;20050;-77
2021/04/27 07:12:53;;;;;;;4.65;1.02;;;8.60;77.00;;;;;;5077467;28;20065;-75
2021/04/27 07:15:19;;;;;;;3.30;1.20;;;8.70;75.40;;;;;;5078224;28;20446;-76
2021/04/27 07:17:45;;;;;;;3.83;1.00;;;8.80;75.50;;;;;;5077788;28;20073;-75
2021/04/27 07:20:11;;;;;;;3.55;0.93;;;8.90;75.30;;;;;;5095164;28;20062;-76
2021/04/27 07:22:37;;;;;;;3.05;0.60;;;9.00;75.00;;;;;;5076862;28;20024;-76
2021/04/27 07:25:04;;;;;;;4.55;1.15;;;9.00;73.90;;;;;;5076604;28;20050;-76
2021/04/27 07:27:29;;;;;;;2.88;0.90;;;9.10;74.00;;;;;;5076988;28;20381;-76
2021/04/27 07:29:55;;;;;;;2.97;0.90;;;9.20;74.90;;;;;;5095529;28;20031;-76
2021/04/27 07:32:20;;;;;;;3.92;1.15;;;9.20;72.20;;;;;;5094984;28;20028;-74
2021/04/27 07:34:46;;;;;;;3.60;1.45;;;9.10;71.80;;;;;;5076452;28;20051;-74
2021/04/27 07:37:12;;;;;;;3.30;1.17;;;9.10;71.60;;;;;;5076618;28;20019;-75
2021/04/27 07:39:37;;;;;;;5.30;1.70;;;9.20;71.60;;;;;;5095230;28;20486;-74
2021/04/27 07:42:04;;;;;;;2.88;1.33;;;9.20;71.20;;;;;;5094758;28;20062;-75
2021/04/27 07:44:29;;;;;;;2.00;0.98;;;9.40;71.00;;;;;;5094299;28;20085;-76
2021/04/27 07:46:55;;;;;;;3.20;1.00;;;9.70;70.40;;;;;;5076574;28;20024;-76
2021/04/27 07:49:20;;;;;;;3.97;1.20;;;9.90;69.70;;;;;;5094400;28;20028;-76
2021/04/27 07:51:51;;;;;;;2.75;1.13;;;10.10;67.90;;;;;;5094805;28;20423;-74
2021/04/27 07:54:16;;;;;;;3.15;0.77;;;10.50;67.20;;;;;;5076357;28;20021;-78
2021/04/27 07:56:42;;;;;;;4.45;1.27;;;10.50;65.50;;;;;;5076284;28;20074;-78
2021/04/27 07:59:07;;;;;;;4.93;1.23;;;10.60;64.20;;;;;;5094414;28;20472;-76
2021/04/27 08:01:35;;;;;;;6.03;1.45;;;10.60;63.10;;;;;;5076457;28;20521;-78
2021/04/27 08:04:02;;;;;;;2.33;0.93;;;12.10;64.00;;;;;;5076152;28;20020;-79
2021/04/27 08:06:28;;;;;;;3.05;0.98;;;10.80;62.00;;;;;;5094383;28;20480;-78
2021/04/27 08:09:14;;;;;;;2.47;0.85;;;11.00;62.70;;;;;;5075642;28;20051;-74
2021/04/27 08:11:40;;;;;;;1.70;0.63;;;11.00;60.00;;;;;;5075021;28;20027;-75
2021/04/27 08:14:08;;;;;;;1.55;0.80;;;11.10;60.00;;;;;;5076100;28;20024;-78
2021/04/27 08:16:34;;;;;;;2.20;1.35;;;11.20;59.90;;;;;;5076819;28;20516;-75
2021/04/27 08:19:00;;;;;;;1.73;0.68;;;11.20;58.30;;;;;;5124808;22;20047;-77
2021/04/27 08:21:27;;;;;;;4.00;1.35;;;12.70;60.40;;;;;;5094216;28;20020;-76
2021/04/27 08:23:53;;;;;;;2.83;0.80;;;11.30;59.00;;;;;;5094206;28;20024;-75
2021/04/27 08:26:18;;;;;;;3.35;1.00;;;11.30;58.20;;;;;;5094710;28;20412;-76
2021/04/27 08:28:44;;;;;;;3.83;1.13;;;11.30;58.20;;;;;;5075922;28;20031;-79
2021/04/27 08:31:10;;;;;;;4.75;0.98;;;11.40;58.80;;;;;;5094925;28;20058;-77
2021/04/27 08:33:37;;;;;;;9.02;1.90;;;11.50;58.30;;;;;;5094426;28;20073;-79
2021/04/27 08:36:04;;;;;;;4.15;1.45;;;11.50;57.50;;;;;;5094656;28;20446;-79
2021/04/27 08:38:31;;;;;;;3.88;1.60;;;11.70;57.50;;;;;;5076614;28;20127;-78
2021/04/27 08:40:59;;;;;;;4.45;1.13;;;11.80;58.10;;;;;;5094580;28;20094;-75
2021/04/27 08:43:24;;;;;;;16.17;1.80;;;12.00;57.50;;;;;;5095690;28;20025;-77
2021/04/27 08:45:50;;;;;;;8.43;1.17;;;12.10;56.90;;;;;;5077111;28;20389;-77
2021/04/27 08:48:17;;;;;;;6.80;0.82;;;12.30;55.90;;;;;;5094678;28;20028;-76
2021/04/27 08:50:44;;;;;;;2.72;0.95;;;12.40;54.90;;;;;;5094813;28;20110;-77
2021/04/27 08:53:11;;;;;;;1.77;0.90;;;12.60;53.80;;;;;;5075912;28;20024;-77
2021/04/27 08:55:37;;;;;;;4.55;0.90;;;12.70;53.10;;;;;;5094429;28;20013;-77
2021/04/27 08:58:14;;;;;;;5.03;0.95;;;12.90;53.60;;;;;;5075467;28;20024;-77
2021/04/27 09:00:40;;;;;;;5.43;1.10;;;13.00;51.70;;;;;;5075112;28;20114;-78
2021/04/27 09:03:09;;;;;;;3.28;0.90;;;13.10;51.50;;;;;;5075863;28;20024;-79
2021/04/27 09:05:37;;;;;;;6.70;0.93;;;13.10;53.40;;;;;;5075788;28;20027;-77
2021/04/27 09:08:03;;;;;;;1.13;0.60;;;13.20;51.30;;;;;;5075271;28;20055;-76
2021/04/27 09:10:32;;;;;;;4.32;0.88;;;13.30;51.40;;;;;;5093822;28;20081;-77
2021/04/27 09:13:02;;;;;;;2.90;1.13;;;13.50;50.60;;;;;;5093846;28;20066;-77
2021/04/27 09:15:30;;;;;;;3.05;1.13;;;15.00;50.30;;;;;;5070797;28;20370;-77
2021/04/27 09:17:56;;;;;;;2.55;0.70;;;13.70;50.20;;;;;;5074895;28;20393;-77
2021/04/27 09:20:22;;;;;;;8.07;1.20;;;13.80;49.00;;;;;;5093287;28;20032;-77
2021/04/27 09:22:48;;;;;;;4.55;1.63;;;13.90;49.00;;;;;;5093335;28;20032;-76
2021/04/27 09:25:14;;;;;;;3.53;0.95;;;13.90;47.90;;;;;;5096011;28;20483;-77
2021/04/27 09:27:44;;;;;;;3.85;0.55;;;14.00;46.80;;;;;;5079331;28;20028;-80
2021/04/27 09:30:26;;;;;;;2.08;0.63;;;14.10;46.50;;;;;;5096849;28;20016;-76
2021/04/27 09:32:55;;;;;;;2.95;0.88;;;14.10;47.80;;;;;;5096933;28;20024;-77
2021/04/27 09:35:29;;;;;;;2.60;0.85;;;14.30;47.00;;;;;;5097825;28;20020;-75
2021/04/27 09:41:05;;;;;;;5.80;1.05;;;14.60;45.20;;;;;;5076375;28;20048;-75
2021/04/27 09:43:34;;;;;;;1.20;0.43;;;14.70;43.00;;;;;;5042431;28;20032;-77
2021/04/27 09:46:05;;;;;;;3.17;0.85;;;14.80;43.10;;;;;;5105500;22;20059;-75
2021/04/27 09:48:46;;;;;;;1.48;0.70;;;15.00;42.00;;;;;;5096570;28;20153;-76
2021/04/27 09:51:12;;;;;;;2.47;0.40;;;15.10;41.20;;;;;;5095003;28;20028;-76
2021/04/27 09:53:41;;;;;;;1.65;0.30;;;15.20;42.20;;;;;;5095125;28;20413;-75
2021/04/27 09:56:07;;;;;;;2.30;0.40;;;15.30;41.00;;;;;;5095141;28;20016;-78
2021/04/27 09:58:34;;;;;;;2.58;0.30;;;15.40;39.10;;;;;;5096973;28;20527;-78
2021/04/27 10:01:01;;;;;;;2.13;0.50;;;15.50;39.00;;;;;;5095859;28;20133;-78
2021/04/27 10:03:27;;;;;;;2.05;0.82;;;15.50;37.70;;;;;;5097601;28;20032;-78
2021/04/27 10:05:53;;;;;;;1.25;0.45;;;15.60;38.70;;;;;;5095680;28;20028;-78
2021/04/27 10:08:19;;;;;;;1.27;0.70;;;15.60;40.50;;;;;;5095862;28;20024;-78
2021/04/27 10:10:44;;;;;;;1.40;0.55;;;15.70;40.00;;;;;;5097105;28;20028;-78
2021/04/27 10:13:10;;;;;;;1.33;0.22;;;15.80;38.60;;;;;;5095612;28;20081;-78
2021/04/27 10:15:37;;;;;;;1.85;0.57;;;16.00;39.50;;;;;;5096922;28;20384;-78
2021/04/27 10:18:06;;;;;;;2.80;0.50;;;16.00;38.20;;;;;;5095728;28;20039;-78
2021/04/27 10:20:32;;;;;;;2.65;0.88;;;16.20;36.50;;;;;;5096929;28;20420;-78
2021/04/27 10:22:59;;;;;;;1.17;0.55;;;16.20;36.60;;;;;;5097450;28;20016;-78
2021/04/27 10:25:30;;;;;;;3.70;0.77;;;16.20;35.80;;;;;;5097132;28;20020;-78
2021/04/27 10:28:03;;;;;;;1.67;0.20;;;16.30;35.80;;;;;;5094372;28;20039;-76
2021/04/27 10:30:40;;;;;;;1.50;0.40;;;16.50;35.50;;;;;;5094172;28;20024;-76
2021/04/27 10:33:06;;;;;;;2.55;0.55;;;16.60;36.20;;;;;;5096190;28;20477;-79
2021/04/27 10:35:37;;;;;;;4.13;0.40;;;16.70;36.40;;;;;;5094770;28;20073;-77
2021/04/27 10:38:08;;;;;;;3.95;0.45;;;16.80;36.70;;;;;;5077768;28;20020;-75
2021/04/27 10:41:12;;;;;;;3.08;0.45;;;17.00;36.60;;;;;;5076874;22;20048;-78
2021/04/27 10:43:40;;;;;;;7.75;1.25;;;17.00;34.10;;;;;;5053629;28;20069;-79
2021/04/27 10:46:27;;;;;;;1.23;0.47;;;17.00;34.60;;;;;;5064649;28;20020;-77
2021/04/27 10:49:15;;;;;;;4.70;0.50;;;16.90;35.00;;;;;;5084481;28;20028;-75
2021/04/27 10:51:41;;;;;;;3.70;0.98;;;17.00;35.70;;;;;;5116423;28;20023;-76
2021/04/27 10:54:15;;;;;;;2.15;0.50;;;17.20;35.80;;;;;;5102907;22;20053;-75
2021/04/27 10:56:55;;;;;;;1.95;0.55;;;17.40;36.00;;;;;;5075699;28;20461;-74
2021/04/27 10:59:26;;;;;;;5.43;0.90;;;17.60;35.80;;;;;;5057219;28;20023;-74
2021/04/27 11:02:12;;;;;;;3.22;0.77;;;17.80;35.00;;;;;;5074132;28;20036;-77
2021/04/27 11:04:43;;;;;;;2.38;0.40;;;17.80;33.90;;;;;;5074848;28;20024;-76
2021/04/27 11:07:32;;;;;;;1.63;0.38;;;17.90;35.30;;;;;;5057357;28;20115;-77
2021/04/27 11:09:58;;;;;;;1.25;0.60;;;18.00;34.30;;;;;;5056737;28;20397;-76
2021/04/27 11:12:29;;;;;;;2.30;0.60;;;18.20;34.30;;;;;;5074585;28;20028;-75
2021/04/27 11:15:29;;;;;;;1.15;0.40;;;18.30;34.40;;;;;;5075541;28;20039;-79
2021/04/27 11:18:04;;;;;;;0.98;0.40;;;18.40;33.80;;;;;;5072914;28;20052;-76
2021/04/27 11:20:51;;;;;;;1.45;0.50;;;18.60;33.50;;;;;;5057028;28;20051;-79
2021/04/27 11:23:41;;;;;;;1.30;0.50;;;18.80;33.30;;;;;;5056026;28;20032;-76
2021/04/27 11:26:38;;;;;;;2.67;0.50;;;19.00;32.10;;;;;;5056695;28;20035;-78
2021/04/27 11:29:08;;;;;;;2.47;0.70;;;19.00;31.90;;;;;;5073486;28;20032;-75
2021/04/27 11:32:12;;;;;;;1.27;0.50;;;18.90;33.20;;;;;;5057119;28;20017;-75
2021/04/27 11:34:55;;;;;;;1.55;0.40;;;18.90;34.00;;;;;;5056469;28;20123;-75
2021/04/27 11:37:27;;;;;;;3.13;0.47;;;19.20;32.70;;;;;;5073978;28;20074;-75
2021/04/27 11:39:54;;;;;;;2.35;0.45;;;19.30;32.60;;;;;;5036823;28;20079;-76
2021/04/27 11:42:30;;;;;;;1.58;0.35;;;19.40;32.50;;;;;;5054024;28;20079;-76
2021/04/27 11:45:05;;;;;;;2.05;0.57;;;19.60;32.10;;;;;;5054810;28;20029;-76
2021/04/27 11:47:39;;;;;;;1.38;0.32;;;19.90;31.60;;;;;;5054212;28;20060;-76
2021/04/27 11:50:16;;;;;;;2.17;0.85;;;20.00;31.00;;;;;;5069204;28;20029;-76
2021/04/27 11:52:50;;;;;;;3.13;0.82;;;20.20;31.80;;;;;;5055617;28;20530;-76
2021/04/27 11:55:21;;;;;;;1.30;0.70;;;20.30;31.10;;;;;;5094955;28;20049;-78
2021/04/27 11:57:56;;;;;;;0.82;0.50;;;20.20;30.00;;;;;;5104481;28;20081;-78
2021/04/27 12:00:48;;;;;;;0.65;0.40;;;20.20;31.10;;;;;;5085067;22;20041;-76
2021/04/27 12:03:27;;;;;;;2.15;0.38;;;20.20;30.70;;;;;;5056082;28;20027;-77
2021/04/27 12:06:09;;;;;;;2.35;0.43;;;20.40;31.90;;;;;;5075968;28;20035;-79
2021/04/27 12:08:54;;;;;;;2.10;0.85;;;20.50;31.20;;;;;;5099570;22;20453;-76
2021/04/27 12:11:22;;;;;;;1.77;0.57;;;20.70;30.40;;;;;;5074024;28;20033;-76
2021/04/27 12:13:49;;;;;;;3.30;0.47;;;20.70;30.70;;;;;;5074524;28;20023;-75
2021/04/27 12:16:29;;;;;;;4.93;0.30;;;20.70;30.00;;;;;;5072914;28;20484;-75
2021/04/27 12:19:00;;;;;;;23.08;1.08;;;20.80;29.90;;;;;;5074396;28;20024;-76
2021/04/27 12:21:37;;;;;;;3.67;0.50;;;21.00;29.90;;;;;;5074324;28;20019;-77
2021/04/27 12:24:24;;;;;;;1.05;0.57;;;21.20;30.00;;;;;;5056325;28;20059;-77
2021/04/27 12:27:06;;;;;;;2.92;0.38;;;21.30;30.20;;;;;;5088697;23;20021;-75
2021/04/27 12:29:40;;;;;;;6.10;0.30;;;21.50;29.70;;;;;;5094482;28;20047;-79
2021/04/27 12:32:14;;;;;;;1.50;0.10;;;21.40;29.50;;;;;;5094196;28;20020;-77
2021/04/27 12:34:57;;;;;;;1.70;0.60;;;21.50;28.60;;;;;;5075492;28;20020;-76
2021/04/27 12:37:24;;;;;;;1.95;0.70;;;21.60;29.50;;;;;;5076016;28;20017;-76
2021/04/27 12:39:50;;;;;;;3.75;0.80;;;21.70;29.30;;;;;;5098136;22;20055;-76
2021/04/27 12:42:18;;;;;;;1.60;0.32;;;21.90;29.50;;;;;;5056380;28;20107;-77
2021/04/27 12:44:52;;;;;;;3.63;0.43;;;22.10;29.60;;;;;;5066581;22;20044;-75
2021/04/27 12:47:21;;;;;;;0.98;0.20;;;22.10;28.20;;;;;;5054326;28;20017;-75
2021/04/27 12:50:09;;;;;;;1.13;0.38;;;22.10;29.10;;;;;;5039567;28;20382;-74
2021/04/27 12:52:49;;;;;;;0.90;0.30;;;22.30;29.00;;;;;;5034109;28;20083;-75
2021/04/27 12:55:27;;;;;;;3.70;0.45;;;22.40;27.90;;;;;;5034646;28;20049;-79
2021/04/27 12:58:09;;;;;;;2.22;0.50;;;22.40;28.50;;;;;;5049274;23;20033;-79
2021/04/27 13:00:46;;;;;;;3.97;0.20;;;22.50;29.10;;;;;;5064740;22;20143;-78
2021/04/27 13:03:17;;;;;;;1.73;0.30;;;22.70;28.60;;;;;;5063125;28;20386;-76
2021/04/27 13:05:43;;;;;;;1.52;0.75;;;22.80;28.70;;;;;;5059459;28;20071;-74
2021/04/27 13:08:11;;;;;;;1.20;0.68;;;22.80;29.00;;;;;;5059777;28;20013;-76